Time;durP1;ratioP1;P1;durP2;ratioP2;P2;SDS_P1;SDS_P2;PMS_P1;PMS_P2;Temp;Humidity;BMP_temperature;BMP_pressure;BME280_temperature;BME280_humidity;BME280_pressure;Samples;Min_cycle;Max_cycle;Signal;HPM_P1;HPM_P2
2023/05/10 00:00:26;;;;;;;4.28;2.03;;;;;;;;;;5055779;28;20057;-75
2023/05/10 00:02:59;;;;;;;4.70;2.20;;;;;;;;;;5055623;28;20053;-75
2023/05/10 00:05:32;;;;;;;7.90;2.50;;;;;;;;;;5054706;28;20048;-74
2023/05/10 00:08:05;;;;;;;5.45;2.00;;;;;;;;;;5056071;28;20041;-74
2023/05/10 00:10:37;;;;;;;4.18;1.92;;;;;;;;;;5054978;28;20060;-74
2023/05/10 00:13:07;;;;;;;4.50;2.03;;;;;;;;;;5054412;28;20063;-74
2023/05/10 00:15:38;;;;;;;3.85;1.90;;;;;;;;;;5026960;28;20049;-77
2023/05/10 00:18:11;;;;;;;2.55;1.90;;;;;;;;;;5042870;28;20061;-74
2023/05/10 00:20:45;;;;;;;2.47;1.90;;;;;;;;;;5047219;28;20403;-74
2023/05/10 00:23:18;;;;;;;4.03;2.17;;;;;;;;;;5046295;28;20055;-73
2023/05/10 00:25:49;;;;;;;2.78;2.15;;;;;;;;;;5046462;28;20041;-74
2023/05/10 00:28:20;;;;;;;5.50;2.63;;;;;;;;;;5045715;28;20500;-74
2023/05/10 00:30:52;;;;;;;5.10;2.03;;;;;;;;;;5044276;28;20055;-75
2023/05/10 00:33:24;;;;;;;3.35;2.30;;;;;;;;;;5046500;28;20045;-75
2023/05/10 00:35:55;;;;;;;4.93;2.67;;;;;;;;;;5046396;28;20056;-74
2023/05/10 00:38:27;;;;;;;3.40;2.42;;;;;;;;;;5046215;28;20500;-74
2023/05/10 00:40:59;;;;;;;9.55;2.58;;;;;;;;;;5046539;28;20045;-74
2023/05/10 00:43:33;;;;;;;5.43;2.33;;;;;;;;;;5046008;28;20051;-74
2023/05/10 00:46:06;;;;;;;4.32;2.17;;;;;;;;;;5044305;28;20538;-74
2023/05/10 00:48:41;;;;;;;5.68;2.00;;;;;;;;;;5045890;28;20420;-74
2023/05/10 00:51:14;;;;;;;3.08;2.08;;;;;;;;;;5045437;28;20547;-74
2023/05/10 00:53:46;;;;;;;8.65;2.53;;;;;;;;;;5044155;28;20057;-74
2023/05/10 00:56:17;;;;;;;3.55;2.47;;;;;;;;;;5045944;28;20051;-74
2023/05/10 00:58:51;;;;;;;3.78;1.75;;;;;;;;;;5044283;28;20056;-74
2023/05/10 01:01:23;;;;;;;5.97;2.20;;;;;;;;;;5045596;28;20052;-75
2023/05/10 01:03:56;;;;;;;5.40;1.80;;;;;;;;;;5045541;28;20389;-75
2023/05/10 01:06:27;;;;;;;3.65;1.88;;;;;;;;;;5045608;28;20420;-76
2023/05/10 01:08:59;;;;;;;5.97;1.95;;;;;;;;;;5045533;28;20041;-74
2023/05/10 01:11:30;;;;;;;2.47;2.00;;;;;;;;;;5045527;28;20515;-76
2023/05/10 01:14:00;;;;;;;7.97;2.30;;;;;;;;;;5043876;28;20049;-74
2023/05/10 01:16:36;;;;;;;3.15;1.83;;;;;;;;;;5045483;28;20416;-76
2023/05/10 01:19:24;;;;;;;5.38;1.95;;;;;;;;;;5028217;28;20055;-77
2023/05/10 01:22:14;;;;;;;4.65;2.20;;;;;;;;;;5044835;28;20052;-74
2023/05/10 01:25:31;;;;;;;4.10;2.10;;;;;;;;;;5045300;28;20420;-75
2023/05/10 01:28:07;;;;;;;3.17;2.17;;;;;;;;;;5022940;28;20053;-76
2023/05/10 01:31:02;;;;;;;8.57;2.47;;;;;;;;;;5044878;28;20056;-75
2023/05/10 01:34:04;;;;;;;3.45;2.42;;;;;;;;;;5045237;28;20071;-77
2023/05/10 01:36:42;;;;;;;5.30;2.35;;;;;;;;;;5038629;28;20094;-75
2023/05/10 01:39:18;;;;;;;7.75;2.35;;;;;;;;;;5044516;28;20060;-75
2023/05/10 01:42:00;;;;;;;5.78;2.65;;;;;;;;;;5041620;28;20037;-75
2023/05/10 01:44:35;;;;;;;4.22;2.53;;;;;;;;;;5043999;28;20052;-75
2023/05/10 01:47:16;;;;;;;9.02;2.28;;;;;;;;;;5041880;28;20098;-74
2023/05/10 01:49:53;;;;;;;3.95;2.33;;;;;;;;;;5043106;28;20091;-75
2023/05/10 01:52:29;;;;;;;7.20;2.83;;;;;;;;;;5044646;28;20045;-77
2023/05/10 01:55:08;;;;;;;4.68;2.65;;;;;;;;;;5027042;28;20057;-75
2023/05/10 01:57:44;;;;;;;3.25;2.25;;;;;;;;;;5044847;28;20052;-75
2023/05/10 02:00:16;;;;;;;6.28;2.70;;;;;;;;;;5043534;28;20053;-73
2023/05/10 02:02:49;;;;;;;2.95;2.28;;;;;;;;;;5051837;28;20393;-73
2023/05/10 02:05:21;;;;;;;5.10;2.72;;;;;;;;;;5044853;28;20049;-74
2023/05/10 02:07:54;;;;;;;6.85;2.38;;;;;;;;;;5043015;28;20059;-76
2023/05/10 02:10:27;;;;;;;5.28;2.45;;;;;;;;;;5043162;28;20060;-75
2023/05/10 02:13:00;;;;;;;5.78;2.70;;;;;;;;;;5045118;28;20523;-75
2023/05/10 02:15:32;;;;;;;7.20;2.30;;;;;;;;;;5042887;28;20045;-75
2023/05/10 02:18:06;;;;;;;5.25;3.20;;;;;;;;;;5045227;28;20045;-74
2023/05/10 02:20:38;;;;;;;5.03;2.97;;;;;;;;;;5043343;28;20053;-74
2023/05/10 02:23:10;;;;;;;6.80;2.65;;;;;;;;;;5044380;28;20056;-75
2023/05/10 02:25:44;;;;;;;4.93;2.45;;;;;;;;;;5044577;28;20037;-76
2023/05/10 02:28:15;;;;;;;6.38;2.70;;;;;;;;;;5042944;28;20052;-76
2023/05/10 02:30:47;;;;;;;6.15;2.30;;;;;;;;;;5044734;28;20594;-74
2023/05/10 02:33:19;;;;;;;6.38;2.30;;;;;;;;;;5042627;28;20068;-76
2023/05/10 02:35:52;;;;;;;2.92;2.33;;;;;;;;;;5044775;28;20056;-75
2023/05/10 02:38:24;;;;;;;4.45;2.28;;;;;;;;;;5043684;28;20049;-75
2023/05/10 02:40:56;;;;;;;4.63;2.65;;;;;;;;;;5043287;28;20075;-75
2023/05/10 02:43:30;;;;;;;8.32;2.67;;;;;;;;;;5044578;28;20064;-75
2023/05/10 02:46:03;;;;;;;3.55;2.17;;;;;;;;;;5042889;28;20433;-75
2023/05/10 02:48:36;;;;;;;5.30;2.55;;;;;;;;;;5042522;28;20060;-74
2023/05/10 02:51:08;;;;;;;6.90;2.33;;;;;;;;;;5026547;28;20053;-78
2023/05/10 02:53:43;;;;;;;7.38;2.63;;;;;;;;;;5045033;28;20484;-74
2023/05/10 02:56:25;;;;;;;4.90;2.20;;;;;;;;;;5042165;28;20542;-75
2023/05/10 02:58:56;;;;;;;7.28;2.33;;;;;;;;;;5040533;28;20542;-75
2023/05/10 03:01:26;;;;;;;4.95;2.75;;;;;;;;;;5042778;28;20056;-74
2023/05/10 03:03:57;;;;;;;3.20;2.53;;;;;;;;;;5044365;28;20426;-75
2023/05/10 03:06:28;;;;;;;5.60;2.40;;;;;;;;;;5044805;28;20515;-74
2023/05/10 03:08:59;;;;;;;5.10;2.95;;;;;;;;;;5048249;28;20048;-75
2023/05/10 03:11:38;;;;;;;3.42;2.60;;;;;;;;;;5046685;28;20068;-74
2023/05/10 03:14:33;;;;;;;7.13;3.25;;;;;;;;;;5046215;28;20057;-75
2023/05/10 03:17:38;;;;;;;3.45;2.72;;;;;;;;;;5045448;28;20057;-75
2023/05/10 03:20:14;;;;;;;4.10;2.63;;;;;;;;;;5045496;28;20056;-75
2023/05/10 03:22:53;;;;;;;5.82;2.90;;;;;;;;;;5048156;28;20049;-74
2023/05/10 03:25:27;;;;;;;4.35;2.95;;;;;;;;;;5045762;28;20037;-74
2023/05/10 03:27:58;;;;;;;5.80;2.42;;;;;;;;;;5046488;28;20049;-75
2023/05/10 03:30:29;;;;;;;6.25;3.53;;;;;;;;;;5046273;28;20080;-75
2023/05/10 03:33:06;;;;;;;5.75;3.08;;;;;;;;;;5047445;28;20044;-74
2023/05/10 03:35:41;;;;;;;7.07;2.47;;;;;;;;;;5045157;28;20427;-74
2023/05/10 03:38:12;;;;;;;5.18;2.80;;;;;;;;;;5047652;28;20400;-74
2023/05/10 03:40:43;;;;;;;4.97;2.70;;;;;;;;;;5045880;28;20424;-75
2023/05/10 03:43:13;;;;;;;7.30;2.90;;;;;;;;;;5046304;28;20527;-75
2023/05/10 03:45:43;;;;;;;3.40;2.40;;;;;;;;;;5046073;28;20134;-75
2023/05/10 03:48:13;;;;;;;6.30;2.78;;;;;;;;;;5028605;28;20877;-76
2023/05/10 03:50:44;;;;;;;4.25;2.45;;;;;;;;;;5044256;28;20063;-74
2023/05/10 03:53:15;;;;;;;5.82;2.80;;;;;;;;;;5045250;28;20049;-76
2023/05/10 03:55:46;;;;;;;10.27;3.22;;;;;;;;;;5047665;28;20049;-75
2023/05/10 03:58:16;;;;;;;10.43;2.60;;;;;;;;;;5045757;28;20523;-75
2023/05/10 04:00:47;;;;;;;3.20;2.28;;;;;;;;;;5045330;28;20045;-74
2023/05/10 04:03:18;;;;;;;4.38;2.30;;;;;;;;;;5045364;28;20426;-75
2023/05/10 04:05:47;;;;;;;3.60;2.55;;;;;;;;;;5028874;28;20534;-75
2023/05/10 04:08:19;;;;;;;5.55;3.22;;;;;;;;;;5046786;28;20045;-74
2023/05/10 04:10:50;;;;;;;8.15;3.38;;;;;;;;;;5046626;28;20076;-76
2023/05/10 04:13:21;;;;;;;3.60;2.38;;;;;;;;;;5046362;28;20049;-75
2023/05/10 04:15:51;;;;;;;4.22;3.00;;;;;;;;;;5046591;28;20048;-74
2023/05/10 04:18:22;;;;;;;8.45;2.63;;;;;;;;;;5046073;28;20060;-74
2023/05/10 04:20:53;;;;;;;4.38;2.38;;;;;;;;;;5046353;28;20052;-75
2023/05/10 04:23:23;;;;;;;7.43;3.00;;;;;;;;;;5046735;28;20033;-74
2023/05/10 04:25:58;;;;;;;4.90;2.42;;;;;;;;;;5046035;28;20049;-75
2023/05/10 04:28:30;;;;;;;5.00;3.05;;;;;;;;;;5046512;28;20056;-74
2023/05/10 04:31:05;;;;;;;5.80;2.42;;;;;;;;;;5046553;28;20052;-74
2023/05/10 04:33:36;;;;;;;5.45;2.75;;;;;;;;;;5046591;28;20048;-74
2023/05/10 04:36:06;;;;;;;7.97;2.50;;;;;;;;;;5045939;28;20526;-75
2023/05/10 04:38:38;;;;;;;6.30;3.22;;;;;;;;;;5046190;28;20053;-74
2023/05/10 04:41:09;;;;;;;4.28;2.67;;;;;;;;;;5046418;28;20472;-74
2023/05/10 04:43:40;;;;;;;3.70;2.75;;;;;;;;;;5045849;28;20052;-74
2023/05/10 04:46:09;;;;;;;;;;;;;;;;;;5046862;28;20045;-74
2023/05/10 04:48:39;;;;;;;6.40;2.65;;;;;;;;;;5046353;28;19924;-74
2023/05/10 04:51:09;;;;;;;;;;;;;;;;;;5046616;28;20061;-74
2023/05/10 04:53:40;;;;;;;5.20;2.85;;;;;;;;;;5046073;28;19929;-75
2023/05/10 04:56:19;;;;;;;4.13;2.15;;;;;;;;;;5045565;28;20044;-75
2023/05/10 04:58:49;;;;;;;4.85;2.42;;;;;;;;;;5045192;28;20045;-74
2023/05/10 05:01:20;;;;;;;3.15;2.25;;;;;;;;;;5045550;28;20407;-75
2023/05/10 05:03:52;;;;;;;4.70;3.10;;;;;;;;;;5045206;28;20056;-74
2023/05/10 05:06:24;;;;;;;3.70;2.53;;;;;;;;;;5045940;28;20045;-74
2023/05/10 05:08:54;;;;;;;3.90;2.38;;;;;;;;;;5045483;28;20523;-74
2023/05/10 05:11:25;;;;;;;10.20;2.70;;;;;;;;;;5045566;28;20045;-74
2023/05/10 05:13:58;;;;;;;5.88;3.15;;;;;;;;;;5045054;28;20053;-75
2023/05/10 05:16:31;;;;;;;11.05;2.97;;;;;;;;;;5045477;28;20056;-74
2023/05/10 05:19:02;;;;;;;6.53;2.67;;;;;;;;;;5045244;28;20049;-74
2023/05/10 05:21:41;;;;;;;6.90;2.63;;;;;;;;;;5046015;28;20056;-74
2023/05/10 05:24:12;;;;;;;4.72;3.60;;;;;;;;;;5045513;28;20037;-73
2023/05/10 05:26:42;;;;;;;4.88;3.13;;;;;;;;;;5045725;28;20045;-74
2023/05/10 05:29:12;;;;;;;;;;;;;;;;;;5045356;28;20060;-74
2023/05/10 05:31:43;;;;;;;6.85;2.58;;;;;;;;;;5044670;28;19937;-74
2023/05/10 05:34:15;;;;;;;5.88;2.80;;;;;;;;;;5045545;28;20045;-74
2023/05/10 05:36:45;;;;;;;4.95;2.97;;;;;;;;;;5043163;28;20492;-75
2023/05/10 05:39:15;;;;;;;5.07;2.85;;;;;;;;;;5045463;28;20052;-74
2023/05/10 05:41:46;;;;;;;8.60;2.63;;;;;;;;;;5045304;28;21101;-74
2023/05/10 05:44:16;;;;;;;;;;;;;;;;;;5044468;28;20041;-74
2023/05/10 05:46:46;;;;;;;4.85;2.53;;;;;;;;;;5044621;28;19925;-74
2023/05/10 05:49:16;;;;;;;4.32;3.00;;;;;;;;;;5044993;28;20515;-74
2023/05/10 05:51:48;;;;;;;5.50;2.90;;;;;;;;;;5044785;28;20053;-74
2023/05/10 05:54:18;;;;;;;10.93;3.10;;;;;;;;;;5045019;28;20049;-75
2023/05/10 05:56:48;;;;;;;6.35;3.28;;;;;;;;;;5045040;28;20052;-74
2023/05/10 05:59:19;;;;;;;5.35;3.10;;;;;;;;;;5045050;28;20508;-74
2023/05/10 06:01:52;;;;;;;6.30;3.70;;;;;;;;;;5044882;28;20495;-74
2023/05/10 06:04:22;;;;;;;6.15;3.28;;;;;;;;;;5044740;28;20053;-74
2023/05/10 06:06:52;;;;;;;6.32;2.95;;;;;;;;;;5044405;28;20045;-75
2023/05/10 06:09:24;;;;;;;;;;;;;;;;;;5044637;28;20049;-74
2023/05/10 06:11:54;;;;;;;6.70;3.55;;;;;;;;;;5044619;28;19925;-74
2023/05/10 06:14:24;;;;;;;5.75;3.22;;;;;;;;;;5044691;28;20436;-74
2023/05/10 06:16:54;;;;;;;11.75;3.72;;;;;;;;;;5044593;28;20048;-74
2023/05/10 06:19:26;;;;;;;6.57;3.78;;;;;;;;;;5042781;28;20060;-74
2023/05/10 06:21:56;;;;;;;4.70;3.83;;;;;;;;;;5044571;28;20049;-74
2023/05/10 06:24:27;;;;;;;5.35;3.65;;;;;;;;;;5044422;28;20052;-74
2023/05/10 06:26:59;;;;;;;5.70;3.78;;;;;;;;;;5044478;28;20083;-74
2023/05/10 06:29:29;;;;;;;7.82;3.55;;;;;;;;;;5044650;28;20064;-74
2023/05/10 06:31:59;;;;;;;;;;;;;;;;;;5045489;28;20059;-74
2023/05/10 06:34:31;;;;;;;7.40;3.13;;;;;;;;;;5044788;28;20043;-73
2023/05/10 06:37:03;;;;;;;6.85;3.97;;;;;;;;;;5044032;28;20056;-74
2023/05/10 06:39:33;;;;;;;9.35;3.45;;;;;;;;;;5044849;28;20056;-74
2023/05/10 06:42:04;;;;;;;;;;;;;;;;;;5046185;28;20056;-75
2023/05/10 06:44:34;;;;;;;7.50;3.47;;;;;;;;;;5046545;28;19925;-74
2023/05/10 06:47:04;;;;;;;6.82;3.50;;;;;;;;;;5048497;28;20511;-75
2023/05/10 06:49:34;;;;;;;5.38;3.70;;;;;;;;;;5048108;28;20044;-73
2023/05/10 06:52:04;;;;;;;;;;;;;;;;;;5048442;28;20053;-74
2023/05/10 06:54:34;;;;;;;4.88;3.22;;;;;;;;;;5048396;28;20375;-74
2023/05/10 06:57:06;;;;;;;9.05;3.83;;;;;;;;;;5047892;28;20052;-75
2023/05/10 06:59:52;;;;;;;6.45;3.60;;;;;;;;;;5047752;28;20059;-74
2023/05/10 07:02:22;;;;;;;10.10;3.80;;;;;;;;;;5048609;28;20052;-75
2023/05/10 07:04:53;;;;;;;7.45;2.95;;;;;;;;;;5048054;28;20384;-75
2023/05/10 07:07:24;;;;;;;9.23;3.70;;;;;;;;;;5047843;28;20056;-73
2023/05/10 07:09:57;;;;;;;6.65;3.13;;;;;;;;;;5047739;28;20053;-74
2023/05/10 07:12:27;;;;;;;5.43;2.70;;;;;;;;;;5047622;28;20443;-74
2023/05/10 07:14:59;;;;;;;5.88;3.15;;;;;;;;;;5047013;28;20072;-74
2023/05/10 07:17:29;;;;;;;4.57;3.47;;;;;;;;;;5047866;28;20040;-74
2023/05/10 07:20:00;;;;;;;12.38;3.25;;;;;;;;;;5048012;28;20037;-74
2023/05/10 07:22:30;;;;;;;5.55;3.20;;;;;;;;;;5047499;28;20530;-75
2023/05/10 07:25:02;;;;;;;4.45;3.45;;;;;;;;;;5047363;28;20053;-74
2023/05/10 07:27:34;;;;;;;5.90;3.45;;;;;;;;;;5047456;28;20052;-75
2023/05/10 07:30:05;;;;;;;4.43;2.90;;;;;;;;;;5047515;28;20057;-75
2023/05/10 07:32:35;;;;;;;4.32;3.47;;;;;;;;;;5047851;28;20080;-74
2023/05/10 07:35:06;;;;;;;5.13;3.35;;;;;;;;;;5047650;28;20048;-75
2023/05/10 07:37:37;;;;;;;3.67;2.88;;;;;;;;;;5047291;28;20060;-74
2023/05/10 07:40:08;;;;;;;5.72;2.92;;;;;;;;;;5047581;28;20068;-75
2023/05/10 07:42:38;;;;;;;6.10;2.95;;;;;;;;;;5047204;28;20053;-75
2023/05/10 07:45:09;;;;;;;4.65;3.00;;;;;;;;;;5047348;28;20119;-74
2023/05/10 07:47:40;;;;;;;5.18;2.85;;;;;;;;;;5047362;28;20049;-74
2023/05/10 07:50:10;;;;;;;4.78;3.53;;;;;;;;;;5046994;28;20059;-74
2023/05/10 07:52:40;;;;;;;7.07;3.35;;;;;;;;;;5047140;28;20053;-75
2023/05/10 07:55:11;;;;;;;4.63;3.28;;;;;;;;;;5045014;28;20874;-75
2023/05/10 07:57:42;;;;;;;5.95;3.95;;;;;;;;;;5047638;28;20528;-76
2023/05/10 08:00:16;;;;;;;5.15;3.35;;;;;;;;;;5047051;28;20045;-77
2023/05/10 08:02:47;;;;;;;4.60;2.90;;;;;;;;;;5047222;28;20045;-74
2023/05/10 08:05:18;;;;;;;3.13;2.63;;;;;;;;;;5046888;28;20538;-75
2023/05/10 08:07:50;;;;;;;4.82;3.05;;;;;;;;;;5047301;28;20052;-75
2023/05/10 08:10:21;;;;;;;4.78;3.30;;;;;;;;;;5046173;28;20542;-74
2023/05/10 08:12:51;;;;;;;7.30;3.78;;;;;;;;;;5046462;28;20068;-75
2023/05/10 08:15:21;;;;;;;6.95;3.00;;;;;;;;;;5046870;28;20045;-76
2023/05/10 08:17:56;;;;;;;10.05;3.65;;;;;;;;;;5046792;28;20068;-75
2023/05/10 08:20:27;;;;;;;5.03;2.72;;;;;;;;;;5046371;28;20508;-75
2023/05/10 08:22:57;;;;;;;4.82;3.40;;;;;;;;;;5045236;28;20044;-74
2023/05/10 08:25:27;;;;;;;8.65;3.88;;;;;;;;;;5046751;28;20515;-75
2023/05/10 08:27:57;;;;;;;5.03;3.35;;;;;;;;;;5046213;28;20033;-74
2023/05/10 08:30:28;;;;;;;7.32;3.05;;;;;;;;;;5046740;28;20407;-76
2023/05/10 08:32:58;;;;;;;3.85;2.78;;;;;;;;;;5046155;28;20051;-76
2023/05/10 08:35:28;;;;;;;5.38;3.10;;;;;;;;;;5046394;28;20045;-74
2023/05/10 08:37:58;;;;;;;5.30;3.10;;;;;;;;;;5045929;28;20052;-76
2023/05/10 08:40:27;;;;;;;;;;;;;;;;;;5047058;28;20071;-76
2023/05/10 08:43:09;;;;;;;4.95;3.25;;;;;;;;;;5046516;28;19931;-74
2023/05/10 08:45:45;;;;;;;6.47;3.97;;;;;;;;;;5046106;28;20041;-74
2023/05/10 08:48:17;;;;;;;4.97;3.38;;;;;;;;;;5045954;28;20052;-76
2023/05/10 08:50:48;;;;;;;6.90;3.53;;;;;;;;;;5046254;28;20048;-76
2023/05/10 08:53:20;;;;;;;6.82;3.75;;;;;;;;;;5043852;28;20071;-74
2023/05/10 08:55:52;;;;;;;5.38;2.85;;;;;;;;;;5044767;28;20060;-75
2023/05/10 08:58:22;;;;;;;6.60;3.03;;;;;;;;;;5046100;28;20056;-76
2023/05/10 09:00:53;;;;;;;116.63;11.07;;;;;;;;;;5045068;28;20052;-75
2023/05/10 09:03:23;;;;;;;104.35;7.05;;;;;;;;;;5045587;28;20041;-76
2023/05/10 09:05:55;;;;;;;12.80;4.60;;;;;;;;;;5045298;28;20052;-75
2023/05/10 09:08:26;;;;;;;7.63;4.40;;;;;;;;;;5045672;28;20048;-75
2023/05/10 09:10:57;;;;;;;13.23;4.65;;;;;;;;;;5045657;28;20048;-76
2023/05/10 09:13:27;;;;;;;14.98;5.35;;;;;;;;;;5045185;28;20409;-75
2023/05/10 09:15:59;;;;;;;26.88;6.57;;;;;;;;;;5045730;28;20037;-75
2023/05/10 09:18:41;;;;;;;18.33;4.93;;;;;;;;;;5044567;28;20056;-75
2023/05/10 09:21:11;;;;;;;28.95;4.70;;;;;;;;;;5045065;28;20060;-76
2023/05/10 09:23:46;;;;;;;63.15;5.65;;;;;;;;;;5043814;28;20056;-76
2023/05/10 09:26:20;;;;;;;130.75;7.38;;;;;;;;;;5045430;28;20056;-75
2023/05/10 09:28:55;;;;;;;102.40;5.93;;;;;;;;;;5045579;28;20049;-76
2023/05/10 09:31:42;;;;;;;128.80;8.90;;;;;;;;;;5045866;28;20400;-75
2023/05/10 09:34:17;;;;;;;65.60;4.40;;;;;;;;;;5045247;28;20049;-76
2023/05/10 09:36:52;;;;;;;20.95;3.58;;;;;;;;;;5045378;28;20060;-77
2023/05/10 09:39:34;;;;;;;28.42;3.58;;;;;;;;;;5045115;28;20055;-76
2023/05/10 09:42:07;;;;;;;13.30;4.70;;;;;;;;;;5045009;28;20053;-74
2023/05/10 09:44:38;;;;;;;9.52;3.78;;;;;;;;;;5044939;28;20495;-76
2023/05/10 09:47:10;;;;;;;8.65;3.85;;;;;;;;;;5045471;28;20060;-76
2023/05/10 09:49:42;;;;;;;11.13;3.88;;;;;;;;;;5043606;28;20528;-75
2023/05/10 09:52:12;;;;;;;5.13;2.60;;;;;;;;;;5044905;28;20536;-77
2023/05/10 09:54:53;;;;;;;11.27;2.97;;;;;;;;;;5044942;28;20053;-75
2023/05/10 09:57:26;;;;;;;19.55;3.45;;;;;;;;;;5042921;28;20048;-76
2023/05/10 09:59:57;;;;;;;17.27;3.67;;;;;;;;;;5045053;28;20055;-78
2023/05/10 10:02:30;;;;;;;17.75;3.10;;;;;;;;;;5045123;28;20045;-76
2023/05/10 10:05:02;;;;;;;4.97;2.85;;;;;;;;;;5045325;28;20041;-77
2023/05/10 10:07:37;;;;;;;4.55;3.00;;;;;;;;;;5044753;28;20040;-74
2023/05/10 10:10:11;;;;;;;5.47;2.70;;;;;;;;;;5044601;28;20045;-76
2023/05/10 10:12:44;;;;;;;5.55;2.72;;;;;;;;;;5044299;28;20056;-77
2023/05/10 10:15:14;;;;;;;7.28;2.85;;;;;;;;;;5059651;28;20037;-76
2023/05/10 10:17:47;;;;;;;8.20;3.72;;;;;;;;;;5067048;28;20048;-75
2023/05/10 10:20:20;;;;;;;13.43;4.30;;;;;;;;;;5068732;28;20041;-76
2023/05/10 10:22:50;;;;;;;6.85;3.80;;;;;;;;;;5069303;28;20063;-79
2023/05/10 10:25:21;;;;;;;11.57;4.80;;;;;;;;;;5068750;28;20044;-76
2023/05/10 10:27:53;;;;;;;16.27;4.63;;;;;;;;;;5068968;28;20055;-76
2023/05/10 10:30:26;;;;;;;15.02;4.40;;;;;;;;;;5068209;28;20048;-76
2023/05/10 10:33:21;;;;;;;17.98;4.10;;;;;;;;;;5068533;28;20052;-78
2023/05/10 10:36:01;;;;;;;45.00;4.28;;;;;;;;;;5068458;28;20048;-76
2023/05/10 10:38:49;;;;;;;61.30;5.15;;;;;;;;;;5068906;28;20044;-76
2023/05/10 10:41:35;;;;;;;22.92;4.32;;;;;;;;;;5068497;28;20044;-76
2023/05/10 10:44:29;;;;;;;13.95;5.20;;;;;;;;;;5068451;28;20052;-76
2023/05/10 10:47:09;;;;;;;14.20;3.97;;;;;;;;;;5068734;28;20041;-76
2023/05/10 10:49:39;;;;;;;23.63;4.97;;;;;;;;;;5068682;28;20048;-76
2023/05/10 10:52:33;;;;;;;31.05;5.07;;;;;;;;;;5068361;28;20044;-80
2023/05/10 10:55:14;;;;;;;12.82;5.70;;;;;;;;;;5066645;28;20053;-75
2023/05/10 10:57:46;;;;;;;17.83;5.22;;;;;;;;;;5068364;28;20049;-76
2023/05/10 11:00:30;;;;;;;10.68;4.57;;;;;;;;;;5068267;28;20495;-76
2023/05/10 11:03:00;;;;;;;8.95;4.22;;;;;;;;;;5066245;28;20048;-78
2023/05/10 11:05:43;;;;;;;21.83;5.75;;;;;;;;;;5067542;28;20044;-76
2023/05/10 11:08:30;;;;;;;13.20;4.15;;;;;;;;;;5067922;28;20055;-76
2023/05/10 11:11:00;;;;;;;11.65;4.30;;;;;;;;;;5068344;28;20843;-78
2023/05/10 11:13:34;;;;;;;12.68;6.63;;;;;;;;;;5067513;28;20053;-76
2023/05/10 11:16:13;;;;;;;12.68;4.60;;;;;;;;;;5067665;28;20052;-75
2023/05/10 11:18:53;;;;;;;8.82;3.97;;;;;;;;;;5067809;28;20044;-75
2023/05/10 11:21:25;;;;;;;4.72;3.60;;;;;;;;;;5067842;28;20514;-75
2023/05/10 11:23:57;;;;;;;11.93;7.45;;;;;;;;;;5049919;28;20048;-75
2023/05/10 11:26:37;;;;;;;9.90;5.13;;;;;;;;;;5067999;28;20503;-75
2023/05/10 11:29:07;;;;;;;5.82;3.33;;;;;;;;;;5066952;28;20056;-75
2023/05/10 11:31:45;;;;;;;6.45;3.63;;;;;;;;;;5067154;28;20052;-76
2023/05/10 11:34:38;;;;;;;7.53;3.30;;;;;;;;;;5067113;28;20939;-78
2023/05/10 11:37:08;;;;;;;5.80;2.80;;;;;;;;;;5065483;28;20055;-76
2023/05/10 11:39:39;;;;;;;7.85;2.80;;;;;;;;;;5067565;28;20051;-76
2023/05/10 11:42:13;;;;;;;3.53;2.70;;;;;;;;;;5067267;28;20410;-76
2023/05/10 11:44:47;;;;;;;11.10;4.50;;;;;;;;;;5067594;28;20701;-76
2023/05/10 11:47:18;;;;;;;5.72;4.05;;;;;;;;;;5067270;28;20041;-76
2023/05/10 11:49:48;;;;;;;5.90;3.63;;;;;;;;;;5065380;28;20052;-76
2023/05/10 11:52:20;;;;;;;4.07;2.65;;;;;;;;;;5066805;28;20052;-77
2023/05/10 11:54:54;;;;;;;4.03;2.75;;;;;;;;;;5067508;28;20506;-76
2023/05/10 11:57:28;;;;;;;5.03;2.90;;;;;;;;;;5067288;28;20040;-76
2023/05/10 11:59:59;;;;;;;7.25;3.22;;;;;;;;;;5067148;28;20045;-76
2023/05/10 12:02:30;;;;;;;5.45;2.80;;;;;;;;;;5066895;28;20063;-76
2023/05/10 12:05:02;;;;;;;4.47;2.22;;;;;;;;;;5064363;28;20059;-76
2023/05/10 12:07:33;;;;;;;5.05;2.55;;;;;;;;;;5067298;28;20052;-76
2023/05/10 12:10:17;;;;;;;6.95;3.30;;;;;;;;;;5066355;28;20087;-76
2023/05/10 12:12:49;;;;;;;4.72;3.30;;;;;;;;;;5067503;28;20045;-76
2023/05/10 12:15:24;;;;;;;4.22;3.15;;;;;;;;;;5066244;28;20048;-76
2023/05/10 12:17:54;;;;;;;8.27;4.20;;;;;;;;;;5066725;28;20056;-77
2023/05/10 12:20:28;;;;;;;7.00;3.72;;;;;;;;;;5066167;28;20041;-77
2023/05/10 12:23:02;;;;;;;12.27;4.18;;;;;;;;;;5066540;28;20048;-76
2023/05/10 12:25:35;;;;;;;5.50;3.63;;;;;;;;;;5066377;28;20046;-78
2023/05/10 12:28:07;;;;;;;9.98;4.30;;;;;;;;;;5066649;28;20048;-76
2023/05/10 12:30:39;;;;;;;6.35;3.97;;;;;;;;;;5066013;28;20056;-76
2023/05/10 12:33:16;;;;;;;11.02;5.55;;;;;;;;;;5065587;28;20052;-76
2023/05/10 12:35:49;;;;;;;11.60;7.93;;;;;;;;;;5065339;28;20526;-79
2023/05/10 12:38:37;;;;;;;8.40;5.22;;;;;;;;;;5066291;28;20044;-76
2023/05/10 12:41:14;;;;;;;9.30;4.93;;;;;;;;;;5065643;28;20048;-76
2023/05/10 12:43:47;;;;;;;9.18;3.85;;;;;;;;;;5065843;28;20036;-76
2023/05/10 12:46:18;;;;;;;6.55;3.00;;;;;;;;;;5065670;28;20053;-76
2023/05/10 12:48:54;;;;;;;3.90;2.90;;;;;;;;;;5065878;28;20055;-75
2023/05/10 12:51:36;;;;;;;4.55;2.90;;;;;;;;;;5065818;28;20045;-77
2023/05/10 12:54:07;;;;;;;7.03;3.53;;;;;;;;;;5065566;28;20055;-76
2023/05/10 12:56:40;;;;;;;7.45;3.67;;;;;;;;;;5066041;28;20148;-76
2023/05/10 12:59:10;;;;;;;7.80;4.03;;;;;;;;;;5065534;28;20045;-80
2023/05/10 13:01:40;;;;;;;4.80;3.13;;;;;;;;;;5064657;28;20419;-76
2023/05/10 13:04:11;;;;;;;4.93;3.38;;;;;;;;;;5065850;28;20399;-76
2023/05/10 13:06:42;;;;;;;5.47;4.10;;;;;;;;;;5065575;28;20491;-74
2023/05/10 13:09:12;;;;;;;5.03;3.60;;;;;;;;;;5064162;28;20407;-76
2023/05/10 13:11:42;;;;;;;4.95;3.58;;;;;;;;;;5065338;28;20048;-76
2023/05/10 13:14:14;;;;;;;4.70;3.80;;;;;;;;;;5065487;28;20049;-78
2023/05/10 13:16:45;;;;;;;7.72;3.95;;;;;;;;;;5065850;28;20057;-76
2023/05/10 13:19:17;;;;;;;7.55;4.57;;;;;;;;;;5065132;28;20064;-75
2023/05/10 13:21:48;;;;;;;6.97;5.40;;;;;;;;;;5065682;28;20048;-76
2023/05/10 13:24:22;;;;;;;8.77;5.57;;;;;;;;;;5064646;28;20056;-76
2023/05/10 13:26:52;;;;;;;11.40;5.35;;;;;;;;;;5064911;28;20044;-75
2023/05/10 13:29:23;;;;;;;9.85;5.70;;;;;;;;;;5065148;28;20056;-76
2023/05/10 13:31:53;;;;;;;6.53;5.65;;;;;;;;;;5065427;28;20051;-76
2023/05/10 13:34:24;;;;;;;10.52;6.35;;;;;;;;;;5064911;28;20040;-76
2023/05/10 13:36:56;;;;;;;9.45;6.13;;;;;;;;;;5065088;28;20055;-75
2023/05/10 13:39:26;;;;;;;10.40;6.53;;;;;;;;;;5065098;28;20060;-76
2023/05/10 13:42:05;;;;;;;10.77;7.15;;;;;;;;;;5064776;28;20055;-75
2023/05/10 13:44:38;;;;;;;16.25;12.02;;;;;;;;;;5061731;28;20537;-74
2023/05/10 13:47:10;;;;;;;12.00;7.68;;;;;;;;;;5065058;28;20036;-75
2023/05/10 13:49:40;;;;;;;17.40;7.72;;;;;;;;;;5065539;28;20048;-76
2023/05/10 13:52:11;;;;;;;8.18;6.35;;;;;;;;;;5064338;28;20052;-74
2023/05/10 13:54:41;;;;;;;13.05;6.95;;;;;;;;;;5063161;28;20058;-75
2023/05/10 14:02:06;;;;;;;10.27;6.10;;;;;;;;;;5063295;28;20048;-76
2023/05/10 14:05:35;;;;;;;7.55;5.28;;;;;;;;;;5064463;28;20060;-76
2023/05/10 14:09:03;;;;;;;9.00;5.32;;;;;;;;;;5063827;28;20048;-76
2023/05/10 14:13:09;;;;;;;5.45;4.07;;;;;;;;;;5069692;28;20056;-75
2023/05/10 14:17:41;;;;;;;5.95;4.00;;;;;;;;;;5063279;28;20040;-75
2023/05/10 14:21:16;;;;;;;9.07;3.42;;;;;;;;;;5059355;28;20053;-76
2023/05/10 14:48:37;;;;;;;12.45;3.80;;;;;;;;;;5044218;28;20049;-77
2023/05/10 14:52:04;;;;;;;9.80;4.18;;;;;;;;;;5049977;28;20053;-77
2023/05/10 14:55:34;;;;;;;9.45;3.92;;;;;;;;;;5057369;28;20052;-77
2023/05/10 14:59:03;;;;;;;8.73;3.50;;;;;;;;;;5058128;28;20512;-77
2023/05/10 15:02:13;;;;;;;3.60;2.60;;;;;;;;;;5043948;28;20423;-76
2023/05/10 15:04:48;;;;;;;;;;;;;;;;;;5048495;28;20060;-77
2023/05/10 15:07:19;;;;;;;9.23;2.80;;;;;;;;;;5047621;28;19927;-75
2023/05/10 15:09:51;;;;;;;5.25;2.70;;;;;;;;;;5047857;28;20064;-76
2023/05/10 15:12:21;;;;;;;6.25;2.47;;;;;;;;;;5048007;28;20052;-77
2023/05/10 15:14:51;;;;;;;3.10;2.50;;;;;;;;;;5047305;28;20052;-76
2023/05/10 15:17:23;;;;;;;5.53;2.33;;;;;;;;;;5047635;28;20056;-76
2023/05/10 15:19:53;;;;;;;3.30;2.55;;;;;;;;;;5047522;28;20045;-76
2023/05/10 15:22:22;;;;;;;5.43;2.63;;;;;;;;;;5046896;28;20061;-78
2023/05/10 15:24:53;;;;;;;7.00;2.58;;;;;;;;;;5047268;28;20412;-76
2023/05/10 15:27:23;;;;;;;4.85;2.58;;;;;;;;;;5046666;28;20415;-77
2023/05/10 15:29:55;;;;;;;5.93;2.60;;;;;;;;;;5047821;28;20056;-76
2023/05/10 15:32:28;;;;;;;3.95;2.90;;;;;;;;;;5047839;28;20052;-76
2023/05/10 15:34:59;;;;;;;5.07;2.72;;;;;;;;;;5047341;28;20059;-74
2023/05/10 15:37:30;;;;;;;3.83;2.50;;;;;;;;;;5047454;28;20052;-75
2023/05/10 15:40:03;;;;;;;6.10;2.97;;;;;;;;;;5047824;28;20045;-75
2023/05/10 15:42:33;;;;;;;3.33;2.45;;;;;;;;;;5046324;28;20760;-75
2023/05/10 15:45:03;;;;;;;4.85;2.40;;;;;;;;;;5047732;28;20072;-76
2023/05/10 15:47:34;;;;;;;6.25;2.40;;;;;;;;;;5045470;28;20875;-76
2023/05/10 15:50:07;;;;;;;4.47;2.70;;;;;;;;;;5047526;28;20045;-75
2023/05/10 15:52:38;;;;;;;2.80;2.22;;;;;;;;;;5046719;28;20057;-75
2023/05/10 15:55:11;;;;;;;4.40;1.95;;;;;;;;;;5044478;28;20060;-75
2023/05/10 15:57:43;;;;;;;7.90;2.60;;;;;;;;;;5047179;28;20052;-77